sensor_id;sensor_type;location;lat;lon;timestamp;temperature;humidity
6581;DHT22;3324;50.796;7.228;2023-04-01T00:00:55;12.00;99.90
6581;DHT22;3324;50.796;7.228;2023-04-01T00:03:22;12.00;99.90
6581;DHT22;3324;50.796;7.228;2023-04-01T00:09:09;12.00;99.90
6581;DHT22;3324;50.796;7.228;2023-04-01T00:11:35;12.00;99.90
6581;DHT22;3324;50.796;7.228;2023-04-01T00:14:00;12.00;99.90
6581;DHT22;3324;50.796;7.228;2023-04-01T00:16:26;12.00;99.90
6581;DHT22;3324;50.796;7.228;2023-04-01T00:18:51;11.90;99.90
6581;DHT22;3324;50.796;7.228;2023-04-01T00:21:18;11.90;99.90
6581;DHT22;3324;50.796;7.228;2023-04-01T00:23:44;11.90;99.90
6581;DHT22;3324;50.796;7.228;2023-04-01T00:26:09;11.90;99.90
6581;DHT22;3324;50.796;7.228;2023-04-01T00:28:35;11.90;99.90
6581;DHT22;3324;50.796;7.228;2023-04-01T00:31:08;11.90;99.90
6581;DHT22;3324;50.796;7.228;2023-04-01T00:33:34;11.90;99.90
6581;DHT22;3324;50.796;7.228;2023-04-01T00:36:11;11.90;99.90
6581;DHT22;3324;50.796;7.228;2023-04-01T00:38:38;11.90;99.90
6581;DHT22;3324;50.796;7.228;2023-04-01T00:41:04;11.90;99.90
6581;DHT22;3324;50.796;7.228;2023-04-01T00:43:30;11.90;99.90
6581;DHT22;3324;50.796;7.228;2023-04-01T00:45:56;11.90;99.90
6581;DHT22;3324;50.796;7.228;2023-04-01T00:48:24;11.90;99.90
6581;DHT22;3324;50.796;7.228;2023-04-01T00:51:00;11.90;99.90
6581;DHT22;3324;50.796;7.228;2023-04-01T00:53:28;11.90;99.90
6581;DHT22;3324;50.796;7.228;2023-04-01T00:56:05;11.90;99.90
6581;DHT22;3324;50.796;7.228;2023-04-01T00:58:34;11.90;99.90
6581;DHT22;3324;50.796;7.228;2023-04-01T01:01:02;11.80;99.90
6581;DHT22;3324;50.796;7.228;2023-04-01T01:03:28;11.90;99.90
6581;DHT22;3324;50.796;7.228;2023-04-01T01:06:24;11.90;99.90
6581;DHT22;3324;50.796;7.228;2023-04-01T01:12:07;11.90;99.90
6581;DHT22;3324;50.796;7.228;2023-04-01T01:35:38;11.80;99.90
6581;DHT22;3324;50.796;7.228;2023-04-01T01:38:14;11.90;99.90
6581;DHT22;3324;50.796;7.228;2023-04-01T01:40:43;11.90;99.90
6581;DHT22;3324;50.796;7.228;2023-04-01T01:43:12;11.80;99.90
6581;DHT22;3324;50.796;7.228;2023-04-01T01:45:43;11.80;99.90
6581;DHT22;3324;50.796;7.228;2023-04-01T01:48:11;11.80;99.90
6581;DHT22;3324;50.796;7.228;2023-04-01T01:50:37;11.80;99.90
6581;DHT22;3324;50.796;7.228;2023-04-01T01:53:10;11.80;99.90
6581;DHT22;3324;50.796;7.228;2023-04-01T01:55:41;11.80;99.90
6581;DHT22;3324;50.796;7.228;2023-04-01T01:58:30;11.80;99.90
6581;DHT22;3324;50.796;7.228;2023-04-01T02:00:58;11.70;99.90
6581;DHT22;3324;50.796;7.228;2023-04-01T02:03:28;11.70;99.90
6581;DHT22;3324;50.796;7.228;2023-04-01T02:05:56;11.70;99.90
6581;DHT22;3324;50.796;7.228;2023-04-01T02:08:27;11.70;99.90
6581;DHT22;3324;50.796;7.228;2023-04-01T02:11:00;11.70;99.90
6581;DHT22;3324;50.796;7.228;2023-04-01T02:13:34;11.70;99.90
6581;DHT22;3324;50.796;7.228;2023-04-01T02:16:05;11.70;99.90
6581;DHT22;3324;50.796;7.228;2023-04-01T02:18:35;11.70;99.90
6581;DHT22;3324;50.796;7.228;2023-04-01T02:21:04;11.70;99.90
6581;DHT22;3324;50.796;7.228;2023-04-01T02:23:33;11.70;99.90
6581;DHT22;3324;50.796;7.228;2023-04-01T02:26:00;11.70;99.90
6581;DHT22;3324;50.796;7.228;2023-04-01T02:28:26;11.70;99.90
6581;DHT22;3324;50.796;7.228;2023-04-01T02:30:53;11.70;99.90
6581;DHT22;3324;50.796;7.228;2023-04-01T02:33:20;11.70;99.90
6581;DHT22;3324;50.796;7.228;2023-04-01T02:35:46;11.70;99.90
6581;DHT22;3324;50.796;7.228;2023-04-01T02:38:13;11.70;99.90
6581;DHT22;3324;50.796;7.228;2023-04-01T02:40:57;11.70;99.90
6581;DHT22;3324;50.796;7.228;2023-04-01T02:43:23;11.70;99.90
6581;DHT22;3324;50.796;7.228;2023-04-01T02:45:49;11.70;99.90
6581;DHT22;3324;50.796;7.228;2023-04-01T02:48:14;11.60;99.90
6581;DHT22;3324;50.796;7.228;2023-04-01T02:50:40;11.50;99.90
6581;DHT22;3324;50.796;7.228;2023-04-01T02:53:06;11.50;99.90
6581;DHT22;3324;50.796;7.228;2023-04-01T02:55:33;11.50;99.90
6581;DHT22;3324;50.796;7.228;2023-04-01T02:57:59;11.40;99.90
6581;DHT22;3324;50.796;7.228;2023-04-01T03:00:25;11.40;99.90
6581;DHT22;3324;50.796;7.228;2023-04-01T03:02:51;11.40;99.90
6581;DHT22;3324;50.796;7.228;2023-04-01T03:05:17;11.40;99.90
6581;DHT22;3324;50.796;7.228;2023-04-01T03:07:43;11.30;99.90
6581;DHT22;3324;50.796;7.228;2023-04-01T03:10:09;11.30;99.90
6581;DHT22;3324;50.796;7.228;2023-04-01T03:12:35;11.20;99.90
6581;DHT22;3324;50.796;7.228;2023-04-01T03:15:01;11.20;99.90
6581;DHT22;3324;50.796;7.228;2023-04-01T03:17:27;11.10;99.90
6581;DHT22;3324;50.796;7.228;2023-04-01T03:19:52;11.10;99.90
6581;DHT22;3324;50.796;7.228;2023-04-01T03:22:18;11.10;99.90
6581;DHT22;3324;50.796;7.228;2023-04-01T03:24:46;11.10;99.90
6581;DHT22;3324;50.796;7.228;2023-04-01T03:27:12;11.00;99.90
6581;DHT22;3324;50.796;7.228;2023-04-01T03:29:38;11.00;99.90
6581;DHT22;3324;50.796;7.228;2023-04-01T03:32:04;10.90;99.90
6581;DHT22;3324;50.796;7.228;2023-04-01T03:34:29;10.90;99.90
6581;DHT22;3324;50.796;7.228;2023-04-01T03:36:55;10.90;99.90
6581;DHT22;3324;50.796;7.228;2023-04-01T03:39:21;10.90;99.90
6581;DHT22;3324;50.796;7.228;2023-04-01T03:41:47;10.90;99.90
6581;DHT22;3324;50.796;7.228;2023-04-01T03:44:13;10.90;99.90
6581;DHT22;3324;50.796;7.228;2023-04-01T03:46:38;10.90;99.90
6581;DHT22;3324;50.796;7.228;2023-04-01T03:49:09;10.80;99.90
6581;DHT22;3324;50.796;7.228;2023-04-01T03:51:38;10.80;99.90
6581;DHT22;3324;50.796;7.228;2023-04-01T03:54:04;10.80;99.90
6581;DHT22;3324;50.796;7.228;2023-04-01T03:56:30;10.80;99.90
6581;DHT22;3324;50.796;7.228;2023-04-01T03:58:55;10.80;99.90
6581;DHT22;3324;50.796;7.228;2023-04-01T04:01:21;10.80;99.90
6581;DHT22;3324;50.796;7.228;2023-04-01T04:03:47;10.80;99.90
6581;DHT22;3324;50.796;7.228;2023-04-01T04:06:15;10.80;99.90
6581;DHT22;3324;50.796;7.228;2023-04-01T04:08:41;10.80;99.90
6581;DHT22;3324;50.796;7.228;2023-04-01T04:11:07;10.80;99.90
6581;DHT22;3324;50.796;7.228;2023-04-01T04:13:32;10.80;99.90
6581;DHT22;3324;50.796;7.228;2023-04-01T04:15:58;10.80;99.90
6581;DHT22;3324;50.796;7.228;2023-04-01T04:18:24;10.80;99.90
6581;DHT22;3324;50.796;7.228;2023-04-01T04:20:49;10.90;99.90
6581;DHT22;3324;50.796;7.228;2023-04-01T04:23:17;10.90;99.90
6581;DHT22;3324;50.796;7.228;2023-04-01T04:29:04;11.00;99.90
6581;DHT22;3324;50.796;7.228;2023-04-01T04:31:30;11.00;99.90
6581;DHT22;3324;50.796;7.228;2023-04-01T04:33:55;11.10;99.90
6581;DHT22;3324;50.796;7.228;2023-04-01T04:36:21;11.10;99.90
6581;DHT22;3324;50.796;7.228;2023-04-01T04:38:47;11.10;99.90
6581;DHT22;3324;50.796;7.228;2023-04-01T04:41:17;11.10;99.90
6581;DHT22;3324;50.796;7.228;2023-04-01T04:43:53;11.10;99.90
6581;DHT22;3324;50.796;7.228;2023-04-01T04:46:19;11.10;99.90
6581;DHT22;3324;50.796;7.228;2023-04-01T04:48:45;11.20;99.90
6581;DHT22;3324;50.796;7.228;2023-04-01T04:51:15;11.20;99.90
6581;DHT22;3324;50.796;7.228;2023-04-01T04:53:41;11.20;99.90
6581;DHT22;3324;50.796;7.228;2023-04-01T04:56:06;11.20;99.90
6581;DHT22;3324;50.796;7.228;2023-04-01T04:58:32;11.20;99.90
6581;DHT22;3324;50.796;7.228;2023-04-01T05:00:59;11.20;99.90
6581;DHT22;3324;50.796;7.228;2023-04-01T05:03:24;11.20;99.90
6581;DHT22;3324;50.796;7.228;2023-04-01T05:05:52;11.20;99.90
6581;DHT22;3324;50.796;7.228;2023-04-01T05:08:18;11.20;99.90
6581;DHT22;3324;50.796;7.228;2023-04-01T05:10:43;11.10;99.90
6581;DHT22;3324;50.796;7.228;2023-04-01T05:13:10;11.10;99.90
6581;DHT22;3324;50.796;7.228;2023-04-01T05:15:35;11.10;99.90
6581;DHT22;3324;50.796;7.228;2023-04-01T05:18:02;11.10;99.90
6581;DHT22;3324;50.796;7.228;2023-04-01T05:20:28;11.00;99.90
6581;DHT22;3324;50.796;7.228;2023-04-01T05:22:57;11.00;99.90
6581;DHT22;3324;50.796;7.228;2023-04-01T05:25:23;11.00;99.90
6581;DHT22;3324;50.796;7.228;2023-04-01T05:27:48;10.90;99.90
6581;DHT22;3324;50.796;7.228;2023-04-01T05:30:14;10.90;99.90
6581;DHT22;3324;50.796;7.228;2023-04-01T05:32:39;10.90;99.90
6581;DHT22;3324;50.796;7.228;2023-04-01T05:35:05;10.90;99.90
6581;DHT22;3324;50.796;7.228;2023-04-01T05:37:34;10.80;99.90
6581;DHT22;3324;50.796;7.228;2023-04-01T05:39:59;10.80;99.90
6581;DHT22;3324;50.796;7.228;2023-04-01T05:42:25;10.80;99.90
6581;DHT22;3324;50.796;7.228;2023-04-01T05:44:51;10.80;99.90
6581;DHT22;3324;50.796;7.228;2023-04-01T05:47:16;10.80;99.90
6581;DHT22;3324;50.796;7.228;2023-04-01T05:49:42;10.80;99.90
6581;DHT22;3324;50.796;7.228;2023-04-01T05:52:08;10.80;99.90
6581;DHT22;3324;50.796;7.228;2023-04-01T05:54:33;10.80;99.90
6581;DHT22;3324;50.796;7.228;2023-04-01T05:56:59;10.80;99.90
6581;DHT22;3324;50.796;7.228;2023-04-01T05:59:25;10.70;99.90
6581;DHT22;3324;50.796;7.228;2023-04-01T06:01:50;10.80;99.90
6581;DHT22;3324;50.796;7.228;2023-04-01T06:04:17;10.70;99.90
6581;DHT22;3324;50.796;7.228;2023-04-01T06:06:43;10.70;99.90
6581;DHT22;3324;50.796;7.228;2023-04-01T06:09:15;10.70;99.90
6581;DHT22;3324;50.796;7.228;2023-04-01T06:15:01;10.70;99.90
6581;DHT22;3324;50.796;7.228;2023-04-01T06:17:43;10.70;99.90
6581;DHT22;3324;50.796;7.228;2023-04-01T06:20:45;10.70;99.90
6581;DHT22;3324;50.796;7.228;2023-04-01T06:26:49;10.80;99.90
6581;DHT22;3324;50.796;7.228;2023-04-01T06:29:19;10.80;99.90
6581;DHT22;3324;50.796;7.228;2023-04-01T06:52:30;10.90;99.90
6581;DHT22;3324;50.796;7.228;2023-04-01T06:55:09;10.90;99.90
6581;DHT22;3324;50.796;7.228;2023-04-01T06:57:43;11.00;99.90
6581;DHT22;3324;50.796;7.228;2023-04-01T07:00:25;11.00;99.90
6581;DHT22;3324;50.796;7.228;2023-04-01T07:05:42;11.00;99.90
6581;DHT22;3324;50.796;7.228;2023-04-01T07:08:28;11.10;99.90
6581;DHT22;3324;50.796;7.228;2023-04-01T07:11:24;11.10;99.90
6581;DHT22;3324;50.796;7.228;2023-04-01T07:13:59;11.20;99.90
6581;DHT22;3324;50.796;7.228;2023-04-01T07:19:56;11.20;99.90
6581;DHT22;3324;50.796;7.228;2023-04-01T07:22:32;11.20;99.90
6581;DHT22;3324;50.796;7.228;2023-04-01T07:25:11;11.20;99.90
6581;DHT22;3324;50.796;7.228;2023-04-01T07:27:37;11.30;99.90
6581;DHT22;3324;50.796;7.228;2023-04-01T07:30:06;11.30;99.90
6581;DHT22;3324;50.796;7.228;2023-04-01T07:45:52;11.40;99.90
6581;DHT22;3324;50.796;7.228;2023-04-01T07:53:51;11.30;99.90
6581;DHT22;3324;50.796;7.228;2023-04-01T07:59:15;11.30;99.90
6581;DHT22;3324;50.796;7.228;2023-04-01T08:01:58;11.20;99.90
6581;DHT22;3324;50.796;7.228;2023-04-01T08:07:17;11.10;99.90
6581;DHT22;3324;50.796;7.228;2023-04-01T08:15:21;11.20;99.90
6581;DHT22;3324;50.796;7.228;2023-04-01T08:20:47;11.20;99.90
6581;DHT22;3324;50.796;7.228;2023-04-01T08:23:15;11.10;99.90
6581;DHT22;3324;50.796;7.228;2023-04-01T08:28:39;11.10;99.90
6581;DHT22;3324;50.796;7.228;2023-04-01T08:31:14;11.10;99.90
6581;DHT22;3324;50.796;7.228;2023-04-01T08:33:42;11.20;99.90
6581;DHT22;3324;50.796;7.228;2023-04-01T08:36:19;11.20;99.90
6581;DHT22;3324;50.796;7.228;2023-04-01T08:39:18;11.20;99.90
6581;DHT22;3324;50.796;7.228;2023-04-01T08:42:16;11.20;99.90
6581;DHT22;3324;50.796;7.228;2023-04-01T08:50:30;11.20;99.90
6581;DHT22;3324;50.796;7.228;2023-04-01T09:37:18;11.30;99.90
6581;DHT22;3324;50.796;7.228;2023-04-01T09:40:02;11.40;99.90
6581;DHT22;3324;50.796;7.228;2023-04-01T09:42:51;11.30;99.90
6581;DHT22;3324;50.796;7.228;2023-04-01T09:48:15;11.30;99.90
6581;DHT22;3324;50.796;7.228;2023-04-01T09:53:54;11.30;99.90
6581;DHT22;3324;50.796;7.228;2023-04-01T09:59:21;11.30;99.90
6581;DHT22;3324;50.796;7.228;2023-04-01T10:02:25;11.30;99.90
6581;DHT22;3324;50.796;7.228;2023-04-01T10:05:22;11.30;99.90
6581;DHT22;3324;50.796;7.228;2023-04-01T10:10:34;11.30;99.90
6581;DHT22;3324;50.796;7.228;2023-04-01T10:27:15;11.50;99.90
6581;DHT22;3324;50.796;7.228;2023-04-01T10:51:40;11.60;99.90
6581;DHT22;3324;50.796;7.228;2023-04-01T10:56:58;11.70;99.90
6581;DHT22;3324;50.796;7.228;2023-04-01T11:28:07;12.00;99.90
6581;DHT22;3324;50.796;7.228;2023-04-01T11:31:08;12.00;99.90
6581;DHT22;3324;50.796;7.228;2023-04-01T11:36:34;12.00;99.90
6581;DHT22;3324;50.796;7.228;2023-04-01T11:41:47;12.00;99.90
6581;DHT22;3324;50.796;7.228;2023-04-01T11:50:12;12.10;99.90
6581;DHT22;3324;50.796;7.228;2023-04-01T11:52:58;12.20;99.90
6581;DHT22;3324;50.796;7.228;2023-04-01T11:55:43;12.20;99.90
6581;DHT22;3324;50.796;7.228;2023-04-01T12:01:13;12.30;99.90
6581;DHT22;3324;50.796;7.228;2023-04-01T12:04:04;12.40;99.90
6581;DHT22;3324;50.796;7.228;2023-04-01T12:06:48;12.50;99.90
6581;DHT22;3324;50.796;7.228;2023-04-01T12:09:35;12.40;99.90
6581;DHT22;3324;50.796;7.228;2023-04-01T12:15:26;12.40;99.90
6581;DHT22;3324;50.796;7.228;2023-04-01T12:21:02;12.40;99.90
6581;DHT22;3324;50.796;7.228;2023-04-01T12:45:34;12.20;99.90
6581;DHT22;3324;50.796;7.228;2023-04-01T12:51:09;12.20;99.90
6581;DHT22;3324;50.796;7.228;2023-04-01T13:16:16;12.30;99.90
6581;DHT22;3324;50.796;7.228;2023-04-01T13:19:03;12.40;99.90
6581;DHT22;3324;50.796;7.228;2023-04-01T13:21:58;12.40;99.90
6581;DHT22;3324;50.796;7.228;2023-04-01T13:25:00;12.40;99.90
6581;DHT22;3324;50.796;7.228;2023-04-01T13:27:41;12.40;99.90
6581;DHT22;3324;50.796;7.228;2023-04-01T13:30:27;12.50;99.90
6581;DHT22;3324;50.796;7.228;2023-04-01T13:33:11;12.40;99.90
6581;DHT22;3324;50.796;7.228;2023-04-01T13:35:58;12.30;99.90
6581;DHT22;3324;50.796;7.228;2023-04-01T13:44:06;12.30;99.90
6581;DHT22;3324;50.796;7.228;2023-04-01T13:50:01;12.30;99.90
6581;DHT22;3324;50.796;7.228;2023-04-01T14:09:58;12.40;99.90
6581;DHT22;3324;50.796;7.228;2023-04-01T14:12:25;12.40;99.90
6581;DHT22;3324;50.796;7.228;2023-04-01T14:17:50;12.30;99.90
6581;DHT22;3324;50.796;7.228;2023-04-01T14:20:37;12.20;99.90
6581;DHT22;3324;50.796;7.228;2023-04-01T14:23:28;12.20;99.90
6581;DHT22;3324;50.796;7.228;2023-04-01T14:26:35;12.20;99.90
6581;DHT22;3324;50.796;7.228;2023-04-01T14:29:42;12.40;99.90
6581;DHT22;3324;50.796;7.228;2023-04-01T14:32:38;12.30;99.90
6581;DHT22;3324;50.796;7.228;2023-04-01T14:38:20;12.40;99.90
6581;DHT22;3324;50.796;7.228;2023-04-01T14:41:06;12.50;99.90
6581;DHT22;3324;50.796;7.228;2023-04-01T14:43:48;12.50;99.90
6581;DHT22;3324;50.796;7.228;2023-04-01T14:49:24;12.60;99.90
6581;DHT22;3324;50.796;7.228;2023-04-01T14:51:55;12.60;99.90
6581;DHT22;3324;50.796;7.228;2023-04-01T14:54:35;12.70;99.90
6581;DHT22;3324;50.796;7.228;2023-04-01T14:57:12;12.70;99.90
6581;DHT22;3324;50.796;7.228;2023-04-01T15:00:13;12.60;99.90
6581;DHT22;3324;50.796;7.228;2023-04-01T15:02:58;12.60;99.90
6581;DHT22;3324;50.796;7.228;2023-04-01T15:05:45;12.60;99.90
6581;DHT22;3324;50.796;7.228;2023-04-01T15:08:29;12.60;99.90
6581;DHT22;3324;50.796;7.228;2023-04-01T15:16:39;12.40;99.90
6581;DHT22;3324;50.796;7.228;2023-04-01T15:32:33;12.60;99.90
6581;DHT22;3324;50.796;7.228;2023-04-01T15:41:07;12.50;99.90
6581;DHT22;3324;50.796;7.228;2023-04-01T15:43:42;12.50;99.90
6581;DHT22;3324;50.796;7.228;2023-04-01T15:46:24;12.30;99.90
6581;DHT22;3324;50.796;7.228;2023-04-01T15:57:28;12.40;99.90
6581;DHT22;3324;50.796;7.228;2023-04-01T16:00:18;12.40;99.90
6581;DHT22;3324;50.796;7.228;2023-04-01T16:02:48;12.40;99.90
6581;DHT22;3324;50.796;7.228;2023-04-01T16:08:25;12.40;99.90
6581;DHT22;3324;50.796;7.228;2023-04-01T16:21:50;12.30;99.90
6581;DHT22;3324;50.796;7.228;2023-04-01T16:33:04;12.30;99.90
6581;DHT22;3324;50.796;7.228;2023-04-01T16:38:22;12.30;99.90
6581;DHT22;3324;50.796;7.228;2023-04-01T16:41:41;12.30;99.90
6581;DHT22;3324;50.796;7.228;2023-04-01T16:44:16;12.20;99.90
6581;DHT22;3324;50.796;7.228;2023-04-01T16:46:44;12.20;99.90
6581;DHT22;3324;50.796;7.228;2023-04-01T16:57:51;12.10;99.90
6581;DHT22;3324;50.796;7.228;2023-04-01T17:00:28;12.10;99.90
6581;DHT22;3324;50.796;7.228;2023-04-01T17:11:06;12.00;99.90
6581;DHT22;3324;50.796;7.228;2023-04-01T17:13:58;12.00;99.90
6581;DHT22;3324;50.796;7.228;2023-04-01T17:16:43;12.00;99.90
6581;DHT22;3324;50.796;7.228;2023-04-01T17:19:22;12.10;99.90
6581;DHT22;3324;50.796;7.228;2023-04-01T17:22:21;12.00;99.90
6581;DHT22;3324;50.796;7.228;2023-04-01T17:27:36;11.80;99.90
6581;DHT22;3324;50.796;7.228;2023-04-01T17:35:19;11.70;99.90
6581;DHT22;3324;50.796;7.228;2023-04-01T17:41:20;11.70;99.90
6581;DHT22;3324;50.796;7.228;2023-04-01T18:00:26;11.60;99.90
6581;DHT22;3324;50.796;7.228;2023-04-01T18:05:56;11.50;99.90
6581;DHT22;3324;50.796;7.228;2023-04-01T18:08:38;11.40;99.90
6581;DHT22;3324;50.796;7.228;2023-04-01T18:11:14;11.40;99.90
6581;DHT22;3324;50.796;7.228;2023-04-01T18:16:43;11.30;99.90
6581;DHT22;3324;50.796;7.228;2023-04-01T18:19:24;11.30;99.90
6581;DHT22;3324;50.796;7.228;2023-04-01T18:21:58;11.30;99.90
6581;DHT22;3324;50.796;7.228;2023-04-01T18:24:33;11.30;99.90
6581;DHT22;3324;50.796;7.228;2023-04-01T18:27:06;11.10;99.90
6581;DHT22;3324;50.796;7.228;2023-04-01T18:30:34;11.10;99.90
6581;DHT22;3324;50.796;7.228;2023-04-01T18:38:11;11.10;99.90
6581;DHT22;3324;50.796;7.228;2023-04-01T18:40:48;11.10;99.90
6581;DHT22;3324;50.796;7.228;2023-04-01T18:43:33;11.10;99.90
6581;DHT22;3324;50.796;7.228;2023-04-01T18:46:21;11.10;99.90
6581;DHT22;3324;50.796;7.228;2023-04-01T18:49:25;11.10;99.90
6581;DHT22;3324;50.796;7.228;2023-04-01T18:51:57;11.00;99.90
6581;DHT22;3324;50.796;7.228;2023-04-01T18:54:32;11.00;99.90
6581;DHT22;3324;50.796;7.228;2023-04-01T18:57:12;11.00;99.90
6581;DHT22;3324;50.796;7.228;2023-04-01T18:59:49;11.00;99.90
6581;DHT22;3324;50.796;7.228;2023-04-01T19:04:47;11.00;99.90
6581;DHT22;3324;50.796;7.228;2023-04-01T19:18:49;10.90;99.90
6581;DHT22;3324;50.796;7.228;2023-04-01T19:24:42;10.80;99.90
6581;DHT22;3324;50.796;7.228;2023-04-01T19:27:34;10.80;99.90
6581;DHT22;3324;50.796;7.228;2023-04-01T19:35:57;10.80;99.90
6581;DHT22;3324;50.796;7.228;2023-04-01T19:38:38;10.80;99.90
6581;DHT22;3324;50.796;7.228;2023-04-01T19:41:26;10.80;99.90
6581;DHT22;3324;50.796;7.228;2023-04-01T19:44:21;10.80;99.90
6581;DHT22;3324;50.796;7.228;2023-04-01T19:49:45;10.80;99.90
6581;DHT22;3324;50.796;7.228;2023-04-01T19:52:35;10.80;99.90
6581;DHT22;3324;50.796;7.228;2023-04-01T20:05:55;10.60;99.90
6581;DHT22;3324;50.796;7.228;2023-04-01T20:13:40;10.70;99.90
6581;DHT22;3324;50.796;7.228;2023-04-01T20:16:11;10.60;99.90
6581;DHT22;3324;50.796;7.228;2023-04-01T20:21:16;10.60;99.90
6581;DHT22;3324;50.796;7.228;2023-04-01T20:24:01;10.60;99.90
6581;DHT22;3324;50.796;7.228;2023-04-01T20:26:35;10.60;99.90
6581;DHT22;3324;50.796;7.228;2023-04-01T20:32:26;10.60;99.90
6581;DHT22;3324;50.796;7.228;2023-04-01T20:37:49;10.70;99.90
6581;DHT22;3324;50.796;7.228;2023-04-01T20:51:30;10.70;99.90
6581;DHT22;3324;50.796;7.228;2023-04-01T20:57:24;10.60;99.90
6581;DHT22;3324;50.796;7.228;2023-04-01T20:59:55;10.70;99.90
6581;DHT22;3324;50.796;7.228;2023-04-01T21:02:37;10.70;99.90
6581;DHT22;3324;50.796;7.228;2023-04-01T21:10:59;10.60;99.90
6581;DHT22;3324;50.796;7.228;2023-04-01T21:24:36;10.50;99.90
6581;DHT22;3324;50.796;7.228;2023-04-01T21:30:11;10.50;99.90
6581;DHT22;3324;50.796;7.228;2023-04-01T21:32:59;10.40;99.90
6581;DHT22;3324;50.796;7.228;2023-04-01T21:41:14;10.40;99.90
6581;DHT22;3324;50.796;7.228;2023-04-01T21:52:02;10.50;99.90
6581;DHT22;3324;50.796;7.228;2023-04-01T22:00:24;10.40;99.90
6581;DHT22;3324;50.796;7.228;2023-04-01T22:03:27;10.50;99.90
6581;DHT22;3324;50.796;7.228;2023-04-01T22:06:11;10.50;99.90
6581;DHT22;3324;50.796;7.228;2023-04-01T22:17:40;10.40;99.90
6581;DHT22;3324;50.796;7.228;2023-04-01T22:20:20;10.40;99.90
6581;DHT22;3324;50.796;7.228;2023-04-01T22:23:01;10.30;99.90
6581;DHT22;3324;50.796;7.228;2023-04-01T22:28:24;10.40;99.90
6581;DHT22;3324;50.796;7.228;2023-04-01T22:30:58;10.30;99.90
6581;DHT22;3324;50.796;7.228;2023-04-01T22:36:06;10.30;99.90
6581;DHT22;3324;50.796;7.228;2023-04-01T22:38:57;10.30;99.90
6581;DHT22;3324;50.796;7.228;2023-04-01T22:44:42;10.30;99.90
6581;DHT22;3324;50.796;7.228;2023-04-01T22:50:19;10.30;99.90
6581;DHT22;3324;50.796;7.228;2023-04-01T22:52:46;10.40;99.90
6581;DHT22;3324;50.796;7.228;2023-04-01T22:55:21;10.30;99.90
6581;DHT22;3324;50.796;7.228;2023-04-01T22:57:54;10.40;99.90
6581;DHT22;3324;50.796;7.228;2023-04-01T23:00:35;10.40;99.90
6581;DHT22;3324;50.796;7.228;2023-04-01T23:03:17;10.30;99.90
6581;DHT22;3324;50.796;7.228;2023-04-01T23:05:53;10.30;99.90
6581;DHT22;3324;50.796;7.228;2023-04-01T23:11:13;10.40;99.90
6581;DHT22;3324;50.796;7.228;2023-04-01T23:13:50;10.30;99.90
6581;DHT22;3324;50.796;7.228;2023-04-01T23:16:25;10.30;99.90
6581;DHT22;3324;50.796;7.228;2023-04-01T23:18:58;10.40;99.90
6581;DHT22;3324;50.796;7.228;2023-04-01T23:29:41;10.40;99.90
6581;DHT22;3324;50.796;7.228;2023-04-01T23:32:22;10.30;99.90
6581;DHT22;3324;50.796;7.228;2023-04-01T23:34:54;10.30;99.90
6581;DHT22;3324;50.796;7.228;2023-04-01T23:37:21;10.30;99.90
6581;DHT22;3324;50.796;7.228;2023-04-01T23:39:50;10.40;99.90
6581;DHT22;3324;50.796;7.228;2023-04-01T23:42:32;10.30;99.90
6581;DHT22;3324;50.796;7.228;2023-04-01T23:45:15;10.30;99.90
6581;DHT22;3324;50.796;7.228;2023-04-01T23:47:48;10.30;99.90
6581;DHT22;3324;50.796;7.228;2023-04-01T23:50:24;10.20;99.90
6581;DHT22;3324;50.796;7.228;2023-04-01T23:53:01;10.30;99.90
6581;DHT22;3324;50.796;7.228;2023-04-01T23:55:31;10.30;99.90
